sensor_id;sensor_type;location;lat;lon;timestamp;pressure;altitude;pressure_sealevel;temperature;humidity
1776;BME280;885;42.626;23.200;2023-10-08T00:01:03;79824.78;;;10.95;72.36
1776;BME280;885;42.626;23.200;2023-10-08T00:03:31;79893.91;;;10.98;74.14
1776;BME280;885;42.626;23.200;2023-10-08T00:22:10;80034.69;;;10.73;77.40
1776;BME280;885;42.626;23.200;2023-10-08T00:24:43;80074.19;;;10.79;76.79
1776;BME280;885;42.626;23.200;2023-10-08T00:27:14;79843.41;;;10.56;76.52
1776;BME280;885;42.626;23.200;2023-10-08T00:29:43;79876.84;;;10.56;77.33
1776;BME280;885;42.626;23.200;2023-10-08T00:32:10;79962.00;;;10.60;78.29
1776;BME280;885;42.626;23.200;2023-10-08T00:34:41;79944.38;;;10.60;76.70
1776;BME280;885;42.626;23.200;2023-10-08T00:37:10;80049.13;;;10.66;78.86
1776;BME280;885;42.626;23.200;2023-10-08T00:39:39;79980.31;;;10.61;77.68
1776;BME280;885;42.626;23.200;2023-10-08T00:42:07;80008.13;;;10.65;77.34
1776;BME280;885;42.626;23.200;2023-10-08T00:44:35;79966.03;;;10.52;78.08
1776;BME280;885;42.626;23.200;2023-10-08T00:47:13;80105.03;;;10.72;77.75
1776;BME280;885;42.626;23.200;2023-10-08T00:49:40;80238.00;;;10.85;78.48
1776;BME280;885;42.626;23.200;2023-10-08T00:52:21;80157.09;;;10.75;78.71
1776;BME280;885;42.626;23.200;2023-10-08T00:55:04;80065.06;;;10.54;79.65
1776;BME280;885;42.626;23.200;2023-10-08T00:57:40;79973.25;;;10.47;78.71
1776;BME280;885;42.626;23.200;2023-10-08T01:00:10;80038.84;;;10.49;78.76
1776;BME280;885;42.626;23.200;2023-10-08T01:02:46;80057.25;;;10.59;77.95
1776;BME280;885;42.626;23.200;2023-10-08T01:05:20;80138.09;;;10.69;79.41
1776;BME280;885;42.626;23.200;2023-10-08T01:07:52;80254.28;;;10.76;79.06
1776;BME280;885;42.626;23.200;2023-10-08T01:10:21;80288.47;;;10.85;78.34
1776;BME280;885;42.626;23.200;2023-10-08T01:12:50;80153.91;;;10.73;77.36
1776;BME280;885;42.626;23.200;2023-10-08T01:15:33;80305.72;;;10.78;79.79
1776;BME280;885;42.626;23.200;2023-10-08T01:18:02;80243.56;;;10.76;79.30
1776;BME280;885;42.626;23.200;2023-10-08T01:20:30;80258.94;;;10.73;79.15
1776;BME280;885;42.626;23.200;2023-10-08T01:23:04;80360.28;;;10.79;80.29
1776;BME280;885;42.626;23.200;2023-10-08T01:25:38;80320.50;;;10.74;79.56
1776;BME280;885;42.626;23.200;2023-10-08T01:28:05;80331.56;;;10.76;79.64
1776;BME280;885;42.626;23.200;2023-10-08T01:30:40;80184.91;;;10.79;76.67
1776;BME280;885;42.626;23.200;2023-10-08T01:33:08;80324.88;;;10.73;80.12
1776;BME280;885;42.626;23.200;2023-10-08T01:35:39;80376.84;;;10.67;81.98
1776;BME280;885;42.626;23.200;2023-10-08T01:38:08;80198.88;;;10.41;82.53
1776;BME280;885;42.626;23.200;2023-10-08T01:40:40;80223.09;;;10.35;82.61
1776;BME280;885;42.626;23.200;2023-10-08T01:43:07;80217.56;;;10.45;81.42
1776;BME280;885;42.626;23.200;2023-10-08T01:45:38;80254.53;;;10.49;79.93
1776;BME280;885;42.626;23.200;2023-10-08T01:48:08;80291.75;;;10.52;80.96
1776;BME280;885;42.626;23.200;2023-10-08T01:50:36;80252.81;;;10.41;82.14
1776;BME280;885;42.626;23.200;2023-10-08T01:53:03;80311.13;;;10.40;82.59
1776;BME280;885;42.626;23.200;2023-10-08T01:55:35;80411.97;;;10.39;83.08
1776;BME280;885;42.626;23.200;2023-10-08T01:58:15;80476.59;;;10.54;81.66
1776;BME280;885;42.626;23.200;2023-10-08T02:00:43;80253.59;;;10.51;77.89
1776;BME280;885;42.626;23.200;2023-10-08T02:03:12;80040.31;;;10.68;70.43
1776;BME280;885;42.626;23.200;2023-10-08T02:05:41;80265.94;;;10.98;71.75
1776;BME280;885;42.626;23.200;2023-10-08T02:08:09;80474.69;;;11.08;74.41
1776;BME280;885;42.626;23.200;2023-10-08T02:10:38;80674.47;;;11.07;78.24
1776;BME280;885;42.626;23.200;2023-10-08T02:13:06;80499.78;;;10.81;78.64
1776;BME280;885;42.626;23.200;2023-10-08T02:15:34;80354.41;;;10.65;78.97
1776;BME280;885;42.626;23.200;2023-10-08T02:18:02;80289.28;;;10.54;79.05
1776;BME280;885;42.626;23.200;2023-10-08T02:20:29;80317.06;;;10.58;78.46
1776;BME280;885;42.626;23.200;2023-10-08T02:22:55;80238.81;;;10.55;78.04
1776;BME280;885;42.626;23.200;2023-10-08T02:25:22;80288.69;;;10.58;78.09
1776;BME280;885;42.626;23.200;2023-10-08T02:27:51;80278.06;;;10.63;77.91
1776;BME280;885;42.626;23.200;2023-10-08T02:30:18;80432.28;;;10.82;78.12
1776;BME280;885;42.626;23.200;2023-10-08T02:32:45;80486.31;;;10.86;78.63
1776;BME280;885;42.626;23.200;2023-10-08T02:35:12;80211.84;;;10.65;75.73
1776;BME280;885;42.626;23.200;2023-10-08T02:37:39;80265.28;;;10.73;75.89
1776;BME280;885;42.626;23.200;2023-10-08T02:40:08;80225.13;;;11.15;67.12
1776;BME280;885;42.626;23.200;2023-10-08T02:42:43;80520.41;;;11.42;69.46
1776;BME280;885;42.626;23.200;2023-10-08T02:45:12;80438.50;;;11.13;73.96
1776;BME280;885;42.626;23.200;2023-10-08T02:47:41;80418.66;;;10.98;75.97
1776;BME280;885;42.626;23.200;2023-10-08T02:50:10;80204.31;;;10.68;76.56
1776;BME280;885;42.626;23.200;2023-10-08T02:52:37;80150.97;;;10.64;76.77
1776;BME280;885;42.626;23.200;2023-10-08T02:55:05;80216.25;;;10.64;77.07
1776;BME280;885;42.626;23.200;2023-10-08T02:57:43;80099.25;;;10.38;79.26
1776;BME280;885;42.626;23.200;2023-10-08T03:00:13;80144.53;;;10.54;77.75
1776;BME280;885;42.626;23.200;2023-10-08T03:02:41;80268.97;;;10.67;77.45
1776;BME280;885;42.626;23.200;2023-10-08T03:05:08;80232.56;;;10.59;77.62
1776;BME280;885;42.626;23.200;2023-10-08T03:07:38;80211.03;;;10.51;79.11
1776;BME280;885;42.626;23.200;2023-10-08T03:10:07;80190.22;;;10.52;78.69
1776;BME280;885;42.626;23.200;2023-10-08T03:12:43;80324.47;;;10.46;81.49
1776;BME280;885;42.626;23.200;2023-10-08T03:15:14;80243.75;;;10.45;80.99
1776;BME280;885;42.626;23.200;2023-10-08T03:17:54;80242.03;;;10.37;81.44
1776;BME280;885;42.626;23.200;2023-10-08T03:20:23;80296.66;;;10.42;81.27
1776;BME280;885;42.626;23.200;2023-10-08T03:23:04;80341.69;;;10.39;82.92
1776;BME280;885;42.626;23.200;2023-10-08T03:25:37;80351.56;;;10.45;82.35
1776;BME280;885;42.626;23.200;2023-10-08T03:28:07;80242.31;;;10.35;80.45
1776;BME280;885;42.626;23.200;2023-10-08T03:30:36;80291.13;;;10.51;79.34
1776;BME280;885;42.626;23.200;2023-10-08T03:33:13;80465.13;;;10.65;80.05
1776;BME280;885;42.626;23.200;2023-10-08T03:35:49;80379.59;;;10.63;79.52
1776;BME280;885;42.626;23.200;2023-10-08T03:38:18;80423.19;;;10.66;79.00
1776;BME280;885;42.626;23.200;2023-10-08T03:40:54;80412.41;;;10.62;80.31
1776;BME280;885;42.626;23.200;2023-10-08T03:43:26;80298.91;;;10.46;79.91
1776;BME280;885;42.626;23.200;2023-10-08T03:46:09;80448.06;;;10.45;83.74
1776;BME280;885;42.626;23.200;2023-10-08T03:48:41;80389.13;;;10.66;78.77
1776;BME280;885;42.626;23.200;2023-10-08T03:51:10;80445.72;;;10.92;74.31
1776;BME280;885;42.626;23.200;2023-10-08T03:53:38;80559.97;;;10.93;77.48
1776;BME280;885;42.626;23.200;2023-10-08T03:56:24;80335.09;;;10.81;74.75
1776;BME280;885;42.626;23.200;2023-10-08T03:58:55;80339.22;;;10.82;75.39
1776;BME280;885;42.626;23.200;2023-10-08T04:01:27;80497.41;;;10.88;78.12
1776;BME280;885;42.626;23.200;2023-10-08T04:03:57;80394.72;;;10.81;77.13
1776;BME280;885;42.626;23.200;2023-10-08T04:06:26;80487.72;;;10.76;79.04
1776;BME280;885;42.626;23.200;2023-10-08T04:09:03;80485.16;;;10.74;80.12
1776;BME280;885;42.626;23.200;2023-10-08T04:11:50;80221.44;;;10.52;78.12
1776;BME280;885;42.626;23.200;2023-10-08T04:14:23;80239.34;;;10.46;78.57
1776;BME280;885;42.626;23.200;2023-10-08T04:16:52;80209.84;;;10.34;79.88
1776;BME280;885;42.626;23.200;2023-10-08T04:19:19;80166.34;;;10.35;79.36
1776;BME280;885;42.626;23.200;2023-10-08T04:21:46;80141.09;;;10.33;78.24
1776;BME280;885;42.626;23.200;2023-10-08T04:24:21;79987.03;;;10.39;74.64
1776;BME280;885;42.626;23.200;2023-10-08T04:26:54;80254.94;;;10.56;77.29
1776;BME280;885;42.626;23.200;2023-10-08T04:29:23;80332.19;;;10.57;79.81
1776;BME280;885;42.626;23.200;2023-10-08T04:31:59;80179.59;;;10.37;78.96
1776;BME280;885;42.626;23.200;2023-10-08T04:34:33;80104.88;;;10.34;77.73
1776;BME280;885;42.626;23.200;2023-10-08T04:37:00;80151.81;;;10.33;79.18
1776;BME280;885;42.626;23.200;2023-10-08T04:39:29;80186.78;;;10.31;80.33
1776;BME280;885;42.626;23.200;2023-10-08T04:41:58;80179.59;;;10.37;78.65
1776;BME280;885;42.626;23.200;2023-10-08T04:44:31;80257.28;;;10.45;79.23
1776;BME280;885;42.626;23.200;2023-10-08T04:47:00;80222.16;;;10.37;79.46
1776;BME280;885;42.626;23.200;2023-10-08T04:49:32;80149.56;;;10.29;78.61
1776;BME280;885;42.626;23.200;2023-10-08T04:52:00;80162.28;;;10.39;78.55
1776;BME280;885;42.626;23.200;2023-10-08T04:54:30;80214.09;;;10.44;78.29
1776;BME280;885;42.626;23.200;2023-10-08T04:56:58;80223.09;;;10.35;80.55
1776;BME280;885;42.626;23.200;2023-10-08T04:59:26;80211.09;;;10.35;79.92
1776;BME280;885;42.626;23.200;2023-10-08T05:02:01;80281.69;;;10.32;81.46
1776;BME280;885;42.626;23.200;2023-10-08T05:04:47;80275.16;;;10.38;80.44
1776;BME280;885;42.626;23.200;2023-10-08T05:07:33;80289.34;;;10.38;79.98
1776;BME280;885;42.626;23.200;2023-10-08T05:10:17;80261.97;;;10.42;79.80
1776;BME280;885;42.626;23.200;2023-10-08T05:13:01;80284.94;;;10.39;79.40
1776;BME280;885;42.626;23.200;2023-10-08T05:15:41;80246.16;;;10.38;79.69
1776;BME280;885;42.626;23.200;2023-10-08T05:18:16;80354.66;;;10.43;81.58
1776;BME280;885;42.626;23.200;2023-10-08T05:20:49;80375.47;;;10.42;82.51
1776;BME280;885;42.626;23.200;2023-10-08T05:23:28;80191.19;;;10.30;79.29
1776;BME280;885;42.626;23.200;2023-10-08T05:26:13;80282.91;;;10.49;78.52
1776;BME280;885;42.626;23.200;2023-10-08T05:28:56;80481.97;;;10.56;80.70
1776;BME280;885;42.626;23.200;2023-10-08T05:31:27;80440.69;;;10.57;79.64
1776;BME280;885;42.626;23.200;2023-10-08T05:34:13;80514.66;;;10.66;79.83
1776;BME280;885;42.626;23.200;2023-10-08T05:36:48;80467.69;;;10.67;78.20
1776;BME280;885;42.626;23.200;2023-10-08T05:39:40;80414.94;;;10.64;78.25
1776;BME280;885;42.626;23.200;2023-10-08T05:42:08;80411.63;;;10.72;76.83
1776;BME280;885;42.626;23.200;2023-10-08T05:44:45;80542.66;;;10.79;77.76
1776;BME280;885;42.626;23.200;2023-10-08T05:47:13;80561.41;;;10.87;77.43
1776;BME280;885;42.626;23.200;2023-10-08T05:50:07;80598.78;;;10.94;77.05
1776;BME280;885;42.626;23.200;2023-10-08T05:53:04;80596.03;;;10.99;76.42
1776;BME280;885;42.626;23.200;2023-10-08T05:55:44;80625.63;;;11.11;74.19
1776;BME280;885;42.626;23.200;2023-10-08T05:58:13;80869.25;;;11.22;77.41
1776;BME280;885;42.626;23.200;2023-10-08T06:00:50;80845.94;;;11.10;78.83
1776;BME280;885;42.626;23.200;2023-10-08T06:03:33;81024.81;;;11.05;82.35
1776;BME280;885;42.626;23.200;2023-10-08T06:06:04;80881.31;;;11.11;79.17
1776;BME280;885;42.626;23.200;2023-10-08T06:08:48;80925.00;;;11.30;75.61
1776;BME280;885;42.626;23.200;2023-10-08T06:11:35;81099.34;;;11.44;77.01
1776;BME280;885;42.626;23.200;2023-10-08T06:14:12;81352.56;;;11.70;76.34
1776;BME280;885;42.626;23.200;2023-10-08T06:16:53;81598.66;;;11.87;77.60
1776;BME280;885;42.626;23.200;2023-10-08T06:19:40;81657.16;;;11.97;76.95
1776;BME280;885;42.626;23.200;2023-10-08T06:22:10;81724.03;;;12.20;73.44
1776;BME280;885;42.626;23.200;2023-10-08T06:24:36;82082.72;;;12.44;75.25
1776;BME280;885;42.626;23.200;2023-10-08T06:27:04;82364.34;;;12.66;75.53
1776;BME280;885;42.626;23.200;2023-10-08T06:29:31;82379.13;;;12.86;71.64
1776;BME280;885;42.626;23.200;2023-10-08T06:31:58;82833.91;;;13.11;75.00
1776;BME280;885;42.626;23.200;2023-10-08T06:34:27;83075.50;;;13.26;76.30
1776;BME280;885;42.626;23.200;2023-10-08T06:36:56;83260.97;;;13.32;76.92
1776;BME280;885;42.626;23.200;2023-10-08T06:39:25;83291.50;;;13.34;76.68
1776;BME280;885;42.626;23.200;2023-10-08T06:41:58;83221.91;;;13.31;76.48
1776;BME280;885;42.626;23.200;2023-10-08T06:44:26;83261.44;;;13.35;75.92
1776;BME280;885;42.626;23.200;2023-10-08T06:46:53;83117.47;;;13.34;73.83
1776;BME280;885;42.626;23.200;2023-10-08T06:49:20;82954.63;;;13.29;72.68
1776;BME280;885;42.626;23.200;2023-10-08T06:51:50;82921.03;;;13.30;73.01
1776;BME280;885;42.626;23.200;2023-10-08T06:54:19;83097.72;;;13.38;74.14
1776;BME280;885;42.626;23.200;2023-10-08T06:56:49;83299.06;;;13.50;74.97
1776;BME280;885;42.626;23.200;2023-10-08T06:59:18;83310.69;;;13.48;75.03
1776;BME280;885;42.626;23.200;2023-10-08T07:01:48;83483.03;;;13.51;76.83
1776;BME280;885;42.626;23.200;2023-10-08T07:04:17;83429.22;;;13.47;76.64
1776;BME280;885;42.626;23.200;2023-10-08T07:06:47;83134.53;;;13.27;76.42
1776;BME280;885;42.626;23.200;2023-10-08T07:09:14;83212.91;;;13.35;76.36
1776;BME280;885;42.626;23.200;2023-10-08T07:11:56;83478.34;;;13.41;77.81
1776;BME280;885;42.626;23.200;2023-10-08T07:14:24;83301.16;;;13.37;77.42
1776;BME280;885;42.626;23.200;2023-10-08T07:16:53;83399.25;;;13.33;77.75
1776;BME280;885;42.626;23.200;2023-10-08T07:19:24;83110.44;;;13.33;74.12
1776;BME280;885;42.626;23.200;2023-10-08T07:21:58;83081.31;;;13.52;71.14
1776;BME280;885;42.626;23.200;2023-10-08T07:24:29;83258.75;;;13.61;71.56
1776;BME280;885;42.626;23.200;2023-10-08T07:26:59;83337.00;;;13.77;69.95
1776;BME280;885;42.626;23.200;2023-10-08T07:29:28;83202.94;;;14.16;61.22
1776;BME280;885;42.626;23.200;2023-10-08T07:31:55;83406.22;;;14.47;59.92
1776;BME280;885;42.626;23.200;2023-10-08T07:34:21;83423.91;;;14.69;57.20
1776;BME280;885;42.626;23.200;2023-10-08T07:36:56;83991.16;;;14.81;63.31
1776;BME280;885;42.626;23.200;2023-10-08T07:39:23;84122.91;;;14.79;64.67
1776;BME280;885;42.626;23.200;2023-10-08T07:42:02;84236.59;;;15.41;55.94
1776;BME280;885;42.626;23.200;2023-10-08T07:44:31;84671.44;;;16.03;51.67
1776;BME280;885;42.626;23.200;2023-10-08T07:47:04;85085.63;;;16.55;49.73
1776;BME280;885;42.626;23.200;2023-10-08T07:49:35;85609.91;;;17.03;48.99
1776;BME280;885;42.626;23.200;2023-10-08T07:52:02;86004.84;;;17.23;50.01
1776;BME280;885;42.626;23.200;2023-10-08T07:54:30;86211.16;;;17.31;51.17
1776;BME280;885;42.626;23.200;2023-10-08T07:57:02;86603.75;;;17.50;51.99
1776;BME280;885;42.626;23.200;2023-10-08T07:59:43;86814.59;;;17.69;50.79
1776;BME280;885;42.626;23.200;2023-10-08T08:02:12;87103.94;;;18.14;47.39
1776;BME280;885;42.626;23.200;2023-10-08T08:04:40;87178.91;;;18.50;44.27
1776;BME280;885;42.626;23.200;2023-10-08T08:07:09;87005.88;;;18.54;43.31
1776;BME280;885;42.626;23.200;2023-10-08T08:09:41;87099.31;;;18.57;44.65
1776;BME280;885;42.626;23.200;2023-10-08T08:12:15;86943.94;;;18.43;44.93
1776;BME280;885;42.626;23.200;2023-10-08T08:14:41;86802.69;;;18.11;47.11
1776;BME280;885;42.626;23.200;2023-10-08T08:17:08;87212.63;;;18.39;47.59
1776;BME280;885;42.626;23.200;2023-10-08T08:19:40;87833.06;;;18.73;46.93
1776;BME280;885;42.626;23.200;2023-10-08T08:22:06;87845.72;;;18.95;44.41
1776;BME280;885;42.626;23.200;2023-10-08T08:24:33;88364.59;;;19.30;43.47
1776;BME280;885;42.626;23.200;2023-10-08T08:27:05;88432.44;;;19.48;42.39
1776;BME280;885;42.626;23.200;2023-10-08T08:29:38;88509.59;;;19.66;41.37
1776;BME280;885;42.626;23.200;2023-10-08T08:32:10;88402.91;;;19.64;41.42
1776;BME280;885;42.626;23.200;2023-10-08T08:34:41;88304.59;;;19.51;41.97
1776;BME280;885;42.626;23.200;2023-10-08T08:37:09;88774.53;;;19.82;41.26
1776;BME280;885;42.626;23.200;2023-10-08T08:39:36;88656.09;;;19.84;40.61
1776;BME280;885;42.626;23.200;2023-10-08T08:42:03;88626.38;;;19.88;40.48
1776;BME280;885;42.626;23.200;2023-10-08T08:44:31;88706.53;;;19.87;41.01
1776;BME280;885;42.626;23.200;2023-10-08T08:47:00;88835.66;;;19.89;42.14
1776;BME280;885;42.626;23.200;2023-10-08T08:49:31;88582.78;;;19.77;41.89
1776;BME280;885;42.626;23.200;2023-10-08T08:51:59;89398.53;;;19.70;47.28
1776;BME280;885;42.626;23.200;2023-10-08T08:54:27;88549.69;;;19.74;41.65
1776;BME280;885;42.626;23.200;2023-10-08T08:56:56;89397.25;;;20.18;41.90
1776;BME280;885;42.626;23.200;2023-10-08T08:59:25;89684.19;;;20.43;40.07
1776;BME280;885;42.626;23.200;2023-10-08T09:01:56;90762.16;;;20.94;40.24
1776;BME280;885;42.626;23.200;2023-10-08T09:04:32;90281.69;;;21.02;38.06
1776;BME280;885;42.626;23.200;2023-10-08T09:06:59;90662.19;;;21.11;38.98
1776;BME280;885;42.626;23.200;2023-10-08T09:09:32;90459.66;;;21.05;38.87
1776;BME280;885;42.626;23.200;2023-10-08T09:12:00;90719.38;;;21.08;39.54
1776;BME280;885;42.626;23.200;2023-10-08T09:14:31;91257.03;;;21.28;39.97
1776;BME280;885;42.626;23.200;2023-10-08T09:16:59;91423.53;;;21.35;39.95
1776;BME280;885;42.626;23.200;2023-10-08T09:19:35;90609.41;;;21.06;39.00
1776;BME280;885;42.626;23.200;2023-10-08T09:22:04;90378.59;;;21.07;38.22
1776;BME280;885;42.626;23.200;2023-10-08T09:24:32;91446.69;;;21.45;38.99
1776;BME280;885;42.626;23.200;2023-10-08T09:27:02;91309.84;;;21.51;38.48
1776;BME280;885;42.626;23.200;2023-10-08T09:29:29;91380.09;;;21.55;38.24
1776;BME280;885;42.626;23.200;2023-10-08T09:31:57;91207.69;;;21.54;37.95
1776;BME280;885;42.626;23.200;2023-10-08T09:34:32;92281.59;;;21.85;38.98
1776;BME280;885;42.626;23.200;2023-10-08T09:37:01;92371.00;;;22.03;38.02
1776;BME280;885;42.626;23.200;2023-10-08T09:39:29;91250.41;;;21.58;38.03
1776;BME280;885;42.626;23.200;2023-10-08T09:42:00;91856.75;;;21.70;38.73
1776;BME280;885;42.626;23.200;2023-10-08T09:44:28;92053.41;;;21.98;37.37
1776;BME280;885;42.626;23.200;2023-10-08T09:47:00;93087.47;;;22.37;37.69
1776;BME280;885;42.626;23.200;2023-10-08T09:49:32;93121.81;;;22.48;37.08
1776;BME280;885;42.626;23.200;2023-10-08T09:52:01;93192.22;;;22.49;37.38
1776;BME280;885;42.626;23.200;2023-10-08T09:54:33;92418.34;;;22.20;37.23
1776;BME280;885;42.626;23.200;2023-10-08T09:57:05;93422.13;;;22.69;36.23
1776;BME280;885;42.626;23.200;2023-10-08T09:59:34;93912.22;;;22.90;36.11
1776;BME280;885;42.626;23.200;2023-10-08T10:02:02;95035.91;;;23.30;36.40
1776;BME280;885;42.626;23.200;2023-10-08T10:04:31;93678.03;;;23.03;34.80
1776;BME280;885;42.626;23.200;2023-10-08T10:06:58;95510.31;;;23.61;35.48
1776;BME280;885;42.626;23.200;2023-10-08T10:09:35;97171.94;;;24.20;34.97
1776;BME280;885;42.626;23.200;2023-10-08T10:12:05;97535.97;;;24.43;34.38
1776;BME280;885;42.626;23.200;2023-10-08T10:14:41;97287.59;;;24.44;33.86
1776;BME280;885;42.626;23.200;2023-10-08T10:17:09;97861.00;;;24.67;34.09
1776;BME280;885;42.626;23.200;2023-10-08T10:19:41;96977.38;;;24.28;34.97
1776;BME280;885;42.626;23.200;2023-10-08T10:22:12;96914.03;;;24.29;35.33
1776;BME280;885;42.626;23.200;2023-10-08T10:24:40;95237.44;;;23.74;35.14
1776;BME280;885;42.626;23.200;2023-10-08T10:27:12;94993.31;;;23.50;36.05
1776;BME280;885;42.626;23.200;2023-10-08T10:29:40;95934.03;;;23.78;36.24
1776;BME280;885;42.626;23.200;2023-10-08T10:32:10;97309.06;;;24.22;36.18
1776;BME280;885;42.626;23.200;2023-10-08T10:34:41;98553.97;;;24.70;35.59
1776;BME280;885;42.626;23.200;2023-10-08T10:37:09;99603.66;;;25.14;34.46
1776;BME280;885;42.626;23.200;2023-10-08T10:39:50;99711.16;;;25.15;35.47
1776;BME280;885;42.626;23.200;2023-10-08T10:42:19;99152.84;;;24.96;35.36
1776;BME280;885;42.626;23.200;2023-10-08T10:44:47;97411.75;;;24.48;35.04
1776;BME280;885;42.626;23.200;2023-10-08T10:47:16;97059.41;;;24.25;36.24
1776;BME280;885;42.626;23.200;2023-10-08T10:50:09;97104.88;;;24.11;36.92
1776;BME280;885;42.626;23.200;2023-10-08T10:52:56;98997.53;;;24.77;36.41
1776;BME280;885;42.626;23.200;2023-10-08T10:55:22;100506.28;;;25.55;33.90
1776;BME280;885;42.626;23.200;2023-10-08T10:57:57;101149.13;;;25.75;33.55
1776;BME280;885;42.626;23.200;2023-10-08T11:00:30;100590.75;;;25.64;33.81
1776;BME280;885;42.626;23.200;2023-10-08T11:03:22;98201.66;;;24.91;34.17
1776;BME280;885;42.626;23.200;2023-10-08T11:05:53;96448.41;;;24.37;34.23
1776;BME280;885;42.626;23.200;2023-10-08T11:08:25;96622.66;;;24.29;35.31
1776;BME280;885;42.626;23.200;2023-10-08T11:11:00;96414.81;;;24.15;35.86
1776;BME280;885;42.626;23.200;2023-10-08T11:13:32;97482.41;;;24.14;38.51
1776;BME280;885;42.626;23.200;2023-10-08T11:16:05;95131.97;;;23.59;36.76
1776;BME280;885;42.626;23.200;2023-10-08T11:18:42;94908.84;;;23.48;36.90
1776;BME280;885;42.626;23.200;2023-10-08T11:21:11;93918.81;;;23.12;37.03
1776;BME280;885;42.626;23.200;2023-10-08T11:23:44;94700.75;;;23.14;38.89
1776;BME280;885;42.626;23.200;2023-10-08T11:26:19;95134.44;;;23.24;40.00
1776;BME280;885;42.626;23.200;2023-10-08T11:28:47;94891.22;;;23.15;39.95
1776;BME280;885;42.626;23.200;2023-10-08T11:31:15;94499.84;;;23.06;39.70
1776;BME280;885;42.626;23.200;2023-10-08T11:33:45;94326.03;;;22.85;40.92
1776;BME280;885;42.626;23.200;2023-10-08T11:36:22;94246.00;;;22.82;41.09
1776;BME280;885;42.626;23.200;2023-10-08T11:38:53;93956.41;;;22.67;41.43
1776;BME280;885;42.626;23.200;2023-10-08T11:41:26;94644.66;;;22.65;43.95
1776;BME280;885;42.626;23.200;2023-10-08T11:43:55;94370.16;;;22.64;43.51
1776;BME280;885;42.626;23.200;2023-10-08T11:46:24;94764.63;;;22.67;44.37
1776;BME280;885;42.626;23.200;2023-10-08T11:48:53;94801.19;;;22.72;43.97
1776;BME280;885;42.626;23.200;2023-10-08T11:51:24;94888.00;;;22.80;43.50
1776;BME280;885;42.626;23.200;2023-10-08T11:53:53;95833.34;;;22.73;47.62
1776;BME280;885;42.626;23.200;2023-10-08T11:56:19;94753.75;;;22.68;44.34
1776;BME280;885;42.626;23.200;2023-10-08T11:58:48;94167.69;;;22.49;43.90
1776;BME280;885;42.626;23.200;2023-10-08T12:01:17;93578.47;;;22.31;43.65
1776;BME280;885;42.626;23.200;2023-10-08T12:03:44;93381.78;;;22.28;43.43
1776;BME280;885;42.626;23.200;2023-10-08T12:06:11;93176.94;;;22.19;43.09
1776;BME280;885;42.626;23.200;2023-10-08T12:08:42;93229.31;;;22.25;42.92
1776;BME280;885;42.626;23.200;2023-10-08T12:11:13;93851.00;;;22.43;43.52
1776;BME280;885;42.626;23.200;2023-10-08T12:13:41;94273.66;;;22.65;42.92
1776;BME280;885;42.626;23.200;2023-10-08T12:16:14;94540.66;;;22.77;42.83
1776;BME280;885;42.626;23.200;2023-10-08T12:18:47;94229.91;;;22.79;41.57
1776;BME280;885;42.626;23.200;2023-10-08T12:21:24;94600.00;;;22.72;43.63
1776;BME280;885;42.626;23.200;2023-10-08T12:23:52;94429.19;;;22.68;43.00
1776;BME280;885;42.626;23.200;2023-10-08T12:26:20;93939.47;;;22.59;42.11
1776;BME280;885;42.626;23.200;2023-10-08T12:28:47;94384.94;;;22.70;42.84
1776;BME280;885;42.626;23.200;2023-10-08T12:31:15;93650.63;;;22.62;40.70
1776;BME280;885;42.626;23.200;2023-10-08T12:33:42;94037.31;;;22.74;40.64
1776;BME280;885;42.626;23.200;2023-10-08T12:36:11;95404.53;;;23.18;41.60
1776;BME280;885;42.626;23.200;2023-10-08T12:38:39;95608.06;;;23.41;40.36
1776;BME280;885;42.626;23.200;2023-10-08T12:41:09;94997.13;;;23.26;39.28
1776;BME280;885;42.626;23.200;2023-10-08T12:43:39;95800.66;;;23.51;39.97
1776;BME280;885;42.626;23.200;2023-10-08T12:46:11;95336.88;;;23.43;39.38
1776;BME280;885;42.626;23.200;2023-10-08T12:48:44;94779.34;;;23.16;39.83
1776;BME280;885;42.626;23.200;2023-10-08T12:51:16;94731.97;;;23.14;39.40
1776;BME280;885;42.626;23.200;2023-10-08T12:53:44;95262.06;;;23.32;40.12
1776;BME280;885;42.626;23.200;2023-10-08T12:56:17;96220.34;;;23.61;40.50
1776;BME280;885;42.626;23.200;2023-10-08T12:58:47;96357.84;;;23.72;40.11
1776;BME280;885;42.626;23.200;2023-10-08T13:01:15;95181.09;;;23.26;40.63
1776;BME280;885;42.626;23.200;2023-10-08T13:03:44;93673.91;;;22.64;41.26
1776;BME280;885;42.626;23.200;2023-10-08T13:06:15;93436.81;;;22.49;42.05
1776;BME280;885;42.626;23.200;2023-10-08T13:08:48;93483.88;;;22.46;42.66
1776;BME280;885;42.626;23.200;2023-10-08T13:11:19;93566.59;;;22.45;42.50
1776;BME280;885;42.626;23.200;2023-10-08T13:13:51;95158.66;;;23.15;41.16
1776;BME280;885;42.626;23.200;2023-10-08T13:16:19;97496.09;;;24.04;40.14
1776;BME280;885;42.626;23.200;2023-10-08T13:18:46;100024.59;;;24.88;39.18
1776;BME280;885;42.626;23.200;2023-10-08T13:21:13;101657.63;;;25.44;38.52
1776;BME280;885;42.626;23.200;2023-10-08T13:23:40;99940.69;;;24.94;38.46
1776;BME280;885;42.626;23.200;2023-10-08T13:26:07;101298.97;;;25.44;37.52
1776;BME280;885;42.626;23.200;2023-10-08T13:28:36;101695.75;;;25.64;36.60
1776;BME280;885;42.626;23.200;2023-10-08T13:31:03;100842.84;;;25.42;37.08
1776;BME280;885;42.626;23.200;2023-10-08T13:33:36;100313.22;;;25.25;37.46
1776;BME280;885;42.626;23.200;2023-10-08T13:36:05;98948.13;;;24.79;37.79
1776;BME280;885;42.626;23.200;2023-10-08T13:38:34;96309.69;;;23.80;39.08
1776;BME280;885;42.626;23.200;2023-10-08T13:41:01;96095.47;;;23.65;39.58
1776;BME280;885;42.626;23.200;2023-10-08T13:43:32;96025.75;;;23.67;39.65
1776;BME280;885;42.626;23.200;2023-10-08T13:46:06;96698.72;;;23.85;40.13
1776;BME280;885;42.626;23.200;2023-10-08T13:48:38;96238.84;;;23.66;40.35
1776;BME280;885;42.626;23.200;2023-10-08T13:51:06;95826.09;;;23.51;40.62
1776;BME280;885;42.626;23.200;2023-10-08T13:53:39;94418.94;;;23.01;41.07
1776;BME280;885;42.626;23.200;2023-10-08T13:56:06;94148.00;;;22.82;41.60
1776;BME280;885;42.626;23.200;2023-10-08T13:58:34;93098.59;;;22.48;41.26
1776;BME280;885;42.626;23.200;2023-10-08T14:01:07;93002.69;;;22.42;41.27